createdAt,value
2022-11-04T00:04:03.013Z,10.87
2022-11-04T00:09:08.106Z,11.10
2022-11-04T00:14:11.639Z,11.87
2022-11-04T00:19:14.461Z,10.50
2022-11-04T00:24:35.658Z,10.43
2022-11-04T00:29:38.410Z,10.90
2022-11-04T05:33:26.993Z,6.07
2022-11-04T05:38:29.781Z,6.73
2022-11-04T05:43:33.055Z,6.37
2022-11-04T05:48:40.311Z,7.00
2022-11-04T05:53:43.654Z,6.97
2022-11-04T05:58:46.417Z,6.63
2022-11-04T06:03:49.165Z,6.73
2022-11-04T06:08:52.429Z,7.40
2022-11-04T06:13:56.088Z,6.70
2022-11-04T06:19:01.755Z,6.67
2022-11-04T06:24:08.964Z,7.30
2022-11-04T06:29:11.714Z,7.20
2022-11-04T06:34:14.505Z,7.23
2022-11-04T06:39:17.495Z,7.73
2022-11-04T06:44:20.307Z,7.13
2022-11-04T06:49:23.273Z,8.43
2022-11-04T06:54:26.026Z,7.10
2022-11-04T06:59:28.773Z,6.57
2022-11-04T07:04:31.669Z,6.40
2022-11-04T07:09:36.392Z,6.43
2022-11-04T07:14:39.208Z,6.13
2022-11-04T07:19:42.148Z,6.70
2022-11-04T07:24:48.434Z,6.90
2022-11-04T07:29:53.712Z,7.17
2022-11-04T07:34:57.743Z,6.67
2022-11-04T07:40:00.649Z,6.90
2022-11-04T07:45:03.858Z,6.30
2022-11-04T07:50:10.980Z,5.93
2022-11-04T07:55:18.499Z,5.40
2022-11-04T08:00:21.434Z,5.13
2022-11-04T08:05:24.446Z,5.87
2022-11-04T08:10:27.846Z,5.47
2022-11-04T08:15:30.663Z,6.63
2022-11-04T08:20:33.480Z,6.53
2022-11-04T08:25:36.416Z,6.37
2022-11-04T08:30:39.347Z,5.77
2022-11-04T08:35:42.860Z,5.87
2022-11-04T08:40:45.686Z,5.17
2022-11-04T08:45:48.668Z,4.97
2022-11-04T08:50:53.257Z,5.60
2022-11-04T08:55:56.119Z,4.80
2022-11-04T09:00:59.420Z,5.50
2022-11-04T09:06:02.214Z,5.50
2022-11-04T09:11:07.957Z,7.70
2022-11-04T09:16:12.485Z,8.17
2022-11-04T09:21:15.251Z,6.60
2022-11-04T09:26:18.124Z,6.40
2022-11-04T09:31:21.390Z,5.87
2022-11-04T09:36:24.591Z,5.37
2022-11-04T09:41:47.365Z,5.83
2022-11-04T09:46:51.591Z,6.03
2022-11-04T09:51:56.416Z,6.03
2022-11-04T09:57:00.205Z,6.00
2022-11-04T10:02:06.851Z,6.40
2022-11-04T10:07:38.973Z,5.40
2022-11-04T10:13:04.924Z,6.07
2022-11-04T10:18:38.080Z,6.33
2022-11-04T10:23:46.082Z,6.43
2022-11-04T10:28:55.576Z,6.33
2022-11-04T10:34:16.037Z,7.07
2022-11-04T10:39:31.239Z,6.43
2022-11-04T10:44:35.170Z,6.00
2022-11-04T10:50:27.110Z,6.40
2022-11-04T10:55:45.231Z,6.60
2022-11-04T11:00:48.267Z,6.00
2022-11-04T11:05:52.886Z,6.53
2022-11-04T11:10:56.672Z,6.77
2022-11-04T11:16:19.407Z,6.17
2022-11-04T11:21:23.977Z,5.77
2022-11-04T11:26:33.008Z,6.07
2022-11-04T11:31:37.845Z,6.03
2022-11-04T11:36:41.855Z,6.30
2022-11-04T11:42:02.565Z,5.83
2022-11-04T11:47:20.506Z,6.63
2022-11-04T11:52:27.846Z,6.83
2022-11-04T12:09:34.417Z,6.53
2022-11-04T12:14:52.818Z,6.67
2022-11-04T12:20:13.280Z,7.03
2022-11-04T12:25:32.840Z,6.27
2022-11-04T12:30:49.968Z,6.97
2022-11-04T12:36:41.056Z,6.77
2022-11-04T12:42:23.079Z,7.47
2022-11-04T12:47:43.753Z,7.50
2022-11-04T12:53:03.373Z,6.90
2022-11-04T12:58:14.742Z,6.30
2022-11-04T13:03:30.280Z,6.80
2022-11-04T13:08:44.598Z,6.23
2022-11-04T13:13:47.443Z,7.57
2022-11-04T13:18:51.474Z,6.17
2022-11-04T13:24:17.923Z,6.80
2022-11-04T13:29:22.341Z,6.23
2022-11-04T13:34:44.760Z,5.87
2022-11-04T13:39:52.013Z,6.67
2022-11-04T13:44:59.668Z,6.73
2022-11-04T13:50:02.522Z,8.50
2022-11-04T13:55:08.729Z,7.73
2022-11-04T14:00:22.731Z,10.37
2022-11-04T14:05:31.224Z,9.30
2022-11-04T14:10:49.291Z,10.00
2022-11-04T14:16:14.184Z,9.30
2022-11-04T14:21:27.879Z,9.30
2022-11-04T14:26:43.301Z,8.27
2022-11-04T14:31:50.533Z,7.63
2022-11-04T14:37:07.934Z,6.80
2022-11-04T14:42:14.217Z,7.00
2022-11-04T14:47:26.856Z,6.50
2022-11-04T14:52:38.057Z,7.10
2022-11-04T14:57:48.458Z,6.93
2022-11-04T15:03:35.553Z,7.73
2022-11-04T15:08:39.971Z,8.83
2022-11-04T15:14:01.017Z,8.37
2022-11-04T15:19:04.165Z,7.43
2022-11-04T15:24:16.861Z,7.47
2022-11-04T15:29:23.120Z,7.60
2022-11-04T15:34:27.340Z,8.10
2022-11-04T15:39:45.124Z,9.50
2022-11-04T15:44:53.167Z,9.20
2022-11-04T15:50:05.327Z,9.37
2022-11-04T15:55:22.074Z,9.77
2022-11-04T16:06:10.048Z,11.23
2022-11-04T16:11:21.247Z,9.43
2022-11-04T16:16:28.676Z,9.07
2022-11-04T16:21:56.302Z,14.00
2022-11-04T16:27:07.161Z,17.27
2022-11-04T16:32:38.035Z,17.83
2022-11-04T16:37:46.302Z,16.13
2022-11-04T16:43:07.989Z,15.63
2022-11-04T16:48:22.759Z,18.87
2022-11-04T16:53:36.679Z,20.23
2022-11-04T16:58:52.841Z,19.87
2022-11-04T17:04:08.700Z,16.23
2022-11-04T17:09:34.284Z,16.13
2022-11-04T17:14:47.074Z,14.67
2022-11-04T17:20:00.210Z,14.17
2022-11-04T17:25:21.378Z,13.00
2022-11-04T17:30:39.136Z,13.27
2022-11-04T17:35:50.303Z,12.10
2022-11-04T17:41:17.783Z,13.50
2022-11-04T17:46:41.816Z,12.07
2022-11-04T17:51:47.827Z,12.33
2022-11-04T17:56:51.847Z,13.20
2022-11-04T18:02:04.404Z,13.60
2022-11-04T18:07:10.650Z,13.27
2022-11-04T18:12:43.423Z,13.47
2022-11-04T18:17:51.142Z,12.03
2022-11-04T18:23:02.288Z,12.97
2022-11-04T18:28:07.459Z,12.40
2022-11-04T18:33:10.545Z,14.63
2022-11-04T18:38:13.712Z,13.03
2022-11-04T18:43:16.950Z,13.70
2022-11-04T18:48:21.069Z,12.33
2022-11-04T18:53:26.985Z,12.63
2022-11-04T18:58:35.895Z,12.83
2022-11-04T19:03:39.447Z,15.47
2022-11-04T19:08:46.722Z,19.40
2022-11-04T19:13:55.053Z,21.30
2022-11-04T19:19:03.106Z,18.43
2022-11-04T19:24:08.217Z,17.83
2022-11-04T19:29:11.040Z,17.20
2022-11-04T19:34:13.852Z,16.07
2022-11-04T19:39:16.643Z,13.83
2022-11-04T19:44:21.813Z,15.07
2022-11-04T19:49:24.746Z,15.23
2022-11-04T19:54:28.570Z,14.10
2022-11-04T19:59:31.449Z,16.40
2022-11-04T20:04:34.272Z,15.67
2022-11-04T20:09:37.134Z,16.50
2022-11-04T20:14:40.050Z,17.17
2022-11-04T20:19:42.897Z,16.07
2022-11-04T20:24:45.832Z,15.93
2022-11-04T20:29:48.646Z,15.27
2022-11-04T20:34:51.493Z,17.40
2022-11-04T20:39:54.481Z,16.57
2022-11-04T20:44:57.281Z,16.20
2022-11-04T20:50:00.093Z,17.47
2022-11-04T20:55:03.926Z,15.70
2022-11-04T21:00:08.959Z,16.00
2022-11-04T21:05:12.155Z,15.70
2022-11-04T21:10:14.999Z,15.87
2022-11-04T21:15:37.312Z,16.47
2022-11-04T21:20:41.941Z,15.57
2022-11-04T21:25:48.017Z,15.10
2022-11-04T21:30:52.562Z,15.17
2022-11-04T21:35:55.574Z,15.77
2022-11-04T21:41:07.853Z,15.40
2022-11-04T21:46:13.717Z,15.97
2022-11-04T21:51:22.369Z,14.43
2022-11-04T21:56:29.740Z,16.53
2022-11-04T22:01:33.022Z,18.10
2022-11-04T22:06:36.171Z,16.53
2022-11-04T22:11:39.936Z,16.40
2022-11-04T22:16:44.306Z,18.80
2022-11-04T22:21:47.366Z,17.53
2022-11-04T22:26:50.814Z,16.73
2022-11-04T22:31:53.706Z,16.83
2022-11-04T22:36:56.924Z,16.37
2022-11-04T22:42:00.100Z,14.37
2022-11-04T22:47:03.223Z,14.17
2022-11-04T22:52:14.434Z,12.10
2022-11-04T22:57:50.851Z,14.00
2022-11-04T23:02:54.483Z,16.47
2022-11-04T23:08:03.565Z,15.83
2022-11-04T23:13:29.203Z,16.90
2022-11-04T23:18:45.750Z,17.20
2022-11-04T23:24:25.801Z,17.20
2022-11-04T23:29:50.296Z,13.80
2022-11-04T23:35:11.835Z,11.80
2022-11-04T23:40:32.052Z,10.80
2022-11-04T23:46:03.573Z,8.30
2022-11-04T23:51:25.035Z,7.40
2022-11-04T23:56:48.944Z,5.70
